Syria, VA

3:29 PM EDT on July 06, 2015 (GMT -0400)
IDA | | Change Station
CLOSE
Current Station
Personal Weather Station
Location: Luray, VA
Elevation: 1302 ft
Nearby Weather Stations

Elev 1302 ft 38.59 °N, 78.43 °W | Updated 11 minutes ago

Mostly Cloudy
Mostly Cloudy
83.2 °F
Feels Like 87 °F
N
8.3
Wind Variable Wind from South

Today
High -- | Low -- °F
--% Chance of Precip.
Yesterday
High -- | Low -- °F
Precip. -- in
5:55 AM 8:40 PM
Waning Gibbous, 73% visible
Pressure 30.05 in
Visibility 10.0 miles
Clouds Scattered Clouds 3800 ft
Scattered Clouds 4500 ft
Overcast 7000 ft
Heat Index 87 °F
Dew Point 69 °F
Humidity 62%
Rainfall 0.32 in
Snow Depth Not available.
UV 3 out of 12
Pollen .60 out of 12
Air Quality Not available.
Flu Activity Not available.
METAR KLUA 061915Z AUTO 23004KT 10SM SCT038 SCT045 OVC070 28/21 A3005 RMK AO2

More Conditions Fewer Conditions

Pressure 30.05 in
Visibility 10.0 miles
Clouds Scattered Clouds 3800 ft
Scattered Clouds 4500 ft
Overcast 7000 ft
Heat Index 87 °F
Dew Point 69 °F
Humidity 62%
Rainfall 0.32 in
Snow Depth Not available.
UV 3 out of 12
Pollen .60 out of 12
Air Quality Not available.
Flu Activity Not available.
METAR KLUA 061915Z AUTO 23004KT 10SM SCT038 SCT045 OVC070 28/21 A3005 RMK AO2

More Conditions Fewer Conditions

10-Day Weather Forecast

×

Almanac

Astronomy

Jul. 06, 2015 Rise Set
Actual Time
Civil Twilight
Nautical Twilight
Astronomical Twilight
Moon
Length of Visible Light
Length of Day
Tomorrow will be .
, % of the Moon is Illuminated

Today's Extremes

State Highs State Lows

Community

WunderPhotos

Upload Photos

1,835,621 photos uploaded!

WunderBlogs® & News

Nearby

Air Quality

  Air Quality AQ Index Pollutant
Not available.

Snow Depth

Station Depth Elevation

Earthquake Activity

City Distance Mag. Time & Date
Minimum magnitude displayed is 2.5.

Coastal Water Temperatures

Place Temperature

Stations

Nearby Weather Stations

Station Location Temp. Windchill Dew Point Humidity Wind Precip. Elev Updated Type